Time;durP1;ratioP1;P1;durP2;ratioP2;P2;SDS_P1;SDS_P2;PMS_P1;PMS_P2;Temp;Humidity;BMP_temperature;BMP_pressure;BME280_temperature;BME280_humidity;BME280_pressure;Samples;Min_cycle;Max_cycle;Signal;HPM_P1;HPM_P2
2023/05/13 00:02:13;;;;;;;8.20;4.70;;;;;;;10.44;54.01;101064.99;105848;1251;70001;-46
2023/05/13 00:04:42;;;;;;;11.40;5.00;;;;;;;10.38;53.86;101066.73;105730;1253;70075;-46
2023/05/13 00:07:10;;;;;;;8.80;5.10;;;;;;;10.39;53.85;101063.55;105826;1250;72612;-46
2023/05/13 00:09:38;;;;;;;9.80;5.50;;;;;;;10.41;54.06;101063.51;105768;1253;83729;-47
2023/05/13 00:12:07;;;;;;;11.00;5.20;;;;;;;10.39;54.15;101063.02;105694;1253;73610;-47
2023/05/13 00:14:35;;;;;;;9.90;5.00;;;;;;;10.36;54.09;101063.27;105763;1250;70074;-46
2023/05/13 00:17:04;;;;;;;6.70;5.20;;;;;;;10.36;54.28;101064.52;105760;1251;70460;-46
2023/05/13 00:19:32;;;;;;;10.90;5.40;;;;;;;10.32;54.36;101066.52;105794;1250;74964;-46
2023/05/13 00:22:00;;;;;;;7.00;4.80;;;;;;;10.26;54.47;101064.38;105608;1253;83330;-47
2023/05/13 00:24:28;;;;;;;7.20;4.80;;;;;;;10.21;54.52;101060.99;105615;1251;73780;-47
2023/05/13 00:26:57;;;;;;;10.10;6.10;;;;;;;10.20;54.61;101060.16;105728;1253;69998;-46
2023/05/13 00:29:25;;;;;;;11.60;5.40;;;;;;;10.18;54.60;101060.72;105808;1253;69998;-46
2023/05/13 00:31:54;;;;;;;8.20;5.00;;;;;;;10.16;54.88;101061.11;105660;1250;74863;-46
2023/05/13 00:34:23;;;;;;;10.00;5.40;;;;;;;10.13;54.87;101058.73;105749;1253;83444;-46
2023/05/13 00:36:51;;;;;;;8.50;5.30;;;;;;;10.11;55.04;101063.17;105788;1253;73737;-46
2023/05/13 00:39:19;;;;;;;10.50;4.70;;;;;;;10.06;54.88;101061.02;105686;1255;69929;-47
2023/05/13 00:41:48;;;;;;;8.60;5.10;;;;;;;10.05;54.97;101063.47;105686;1253;70002;-46
2023/05/13 00:44:16;;;;;;;9.80;5.00;;;;;;;10.05;54.95;101064.53;105726;1251;74642;-48
2023/05/13 00:46:45;;;;;;;10.10;4.80;;;;;;;10.03;55.05;101065.98;105612;1256;83182;-46
2023/05/13 00:49:13;;;;;;;12.80;5.20;;;;;;;10.01;55.42;101065.69;105820;1251;73622;-47
2023/05/13 00:51:41;;;;;;;9.30;5.20;;;;;;;9.97;55.50;101066.30;105661;1252;69980;-47
2023/05/13 00:54:09;;;;;;;7.80;5.30;;;;;;;9.90;55.44;101062.96;105595;1251;69998;-46
2023/05/13 00:56:37;;;;;;;7.10;4.90;;;;;;;9.86;55.36;101063.05;105705;1250;74632;-47
2023/05/13 00:59:06;;;;;;;9.70;5.30;;;;;;;9.86;55.42;101066.55;105781;1250;83875;-46
2023/05/13 01:01:47;;;;;;;5.80;4.70;;;;;;;9.82;55.54;101069.27;105672;1253;72469;-46
2023/05/13 01:04:42;;;;;;;9.00;5.20;;;;;;;9.78;55.71;101069.00;105826;1251;69959;-46
2023/05/13 01:07:13;;;;;;;9.70;5.60;;;;;;;9.74;55.83;101071.20;105692;1253;69915;-47
2023/05/13 01:10:04;;;;;;;7.30;4.80;;;;;;;9.70;56.11;101073.55;105644;1255;73903;-47
2023/05/13 01:12:39;;;;;;;6.10;4.70;;;;;;;9.61;56.34;101072.89;105747;1253;83536;-47
2023/05/13 01:15:12;;;;;;;7.90;4.40;;;;;;;9.54;56.35;101073.91;105730;1250;74019;-47
2023/05/13 01:17:48;;;;;;;6.20;4.60;;;;;;;9.49;56.30;101075.08;105730;1253;69946;-46
2023/05/13 01:20:21;;;;;;;8.60;4.30;;;;;;;9.41;56.66;101074.38;105629;1251;69913;-46
2023/05/13 01:22:50;;;;;;;10.10;5.30;;;;;;;9.35;56.79;101079.55;105766;1251;74986;-48
2023/05/13 01:25:19;;;;;;;7.30;4.60;;;;;;;9.32;56.73;101077.54;105757;1253;82400;-46
2023/05/13 01:27:47;;;;;;;8.00;5.00;;;;;;;9.33;56.91;101075.05;105672;1257;73699;-46
2023/05/13 01:30:16;;;;;;;8.40;4.70;;;;;;;9.37;56.91;101077.59;105716;1251;69983;-46
2023/05/13 01:32:45;;;;;;;9.70;5.00;;;;;;;9.45;56.91;101076.20;105672;1251;69989;-46
2023/05/13 01:35:16;;;;;;;7.60;4.90;;;;;;;9.52;56.84;101078.14;105706;1256;75290;-46
2023/05/13 01:37:46;;;;;;;7.90;5.20;;;;;;;9.52;56.86;101083.21;105922;1250;83851;-46
2023/05/13 01:40:15;;;;;;;6.90;4.90;;;;;;;9.48;57.29;101081.73;105629;1253;72705;-46
2023/05/13 01:43:01;;;;;;;7.10;5.10;;;;;;;9.48;57.25;101076.15;105715;1253;69986;-47
2023/05/13 01:45:31;;;;;;;7.80;5.50;;;;;;;9.48;57.22;101077.55;105678;1255;69946;-46
2023/05/13 01:47:59;;;;;;;8.60;5.30;;;;;;;9.45;57.12;101080.73;105737;1253;74219;-49
2023/05/13 01:50:33;;;;;;;13.40;6.90;;;;;;;9.38;57.72;101081.76;105796;1255;83179;-46
2023/05/13 01:53:02;;;;;;;9.90;5.90;;;;;;;9.29;57.72;101080.55;105757;1253;72142;-47
2023/05/13 01:55:31;;;;;;;9.90;5.70;;;;;;;9.24;58.15;101078.92;105706;1253;69912;-46
2023/05/13 01:58:00;;;;;;;7.00;5.20;;;;;;;9.19;58.03;101080.59;105743;1253;69935;-46
2023/05/13 02:00:29;;;;;;;7.50;5.20;;;;;;;9.16;58.37;101081.35;105782;1251;74565;-47
2023/05/13 02:02:57;;;;;;;7.70;5.40;;;;;;;9.09;58.36;101084.79;105723;1253;83127;-46
2023/05/13 02:05:26;;;;;;;9.40;4.70;;;;;;;9.00;58.46;101084.63;105626;1253;73637;-46
2023/05/13 02:07:54;;;;;;;9.90;5.50;;;;;;;8.91;58.49;101087.23;105611;1252;69953;-47
2023/05/13 02:10:23;;;;;;;8.90;5.10;;;;;;;8.82;58.51;101088.10;105637;1251;70008;-48
2023/05/13 02:12:51;;;;;;;7.80;5.10;;;;;;;8.74;58.56;101092.95;105762;1250;74938;-47
2023/05/13 02:15:19;;;;;;;7.00;4.60;;;;;;;8.68;58.53;101098.29;105726;1253;83107;-46
2023/05/13 02:17:47;;;;;;;10.20;5.30;;;;;;;8.65;58.53;101099.92;105684;1252;74033;-47
2023/05/13 02:20:16;;;;;;;9.00;5.20;;;;;;;8.65;58.86;101100.78;105607;1253;69957;-46
2023/05/13 02:22:45;;;;;;;10.50;6.40;;;;;;;8.60;58.82;101104.72;105715;1251;69932;-47
2023/05/13 02:25:13;;;;;;;9.90;5.70;;;;;;;8.57;58.67;101106.33;105765;1253;72578;-46
2023/05/13 02:27:41;;;;;;;12.50;5.30;;;;;;;8.55;58.63;101113.16;105576;1250;82475;-46
2023/05/13 02:30:10;;;;;;;8.40;5.80;;;;;;;8.56;58.67;101106.88;105737;1252;73692;-46
2023/05/13 02:32:41;;;;;;;10.00;6.20;;;;;;;8.63;59.03;101101.52;105733;1250;69885;-46
2023/05/13 02:35:10;;;;;;;8.00;5.20;;;;;;;8.72;59.21;101097.52;105657;1251;69872;-45
2023/05/13 02:37:39;;;;;;;10.20;5.50;;;;;;;8.83;59.53;101096.43;105614;1254;73831;-47
2023/05/13 02:40:09;;;;;;;10.80;5.60;;;;;;;8.97;59.55;101097.91;105674;1251;83494;-46
2023/05/13 02:42:37;;;;;;;7.70;5.20;;;;;;;9.09;59.25;101098.23;105544;1255;72709;-46
2023/05/13 02:45:08;;;;;;;9.70;5.90;;;;;;;9.19;58.95;101100.98;105744;1253;69935;-47
2023/05/13 02:47:38;;;;;;;8.40;5.20;;;;;;;9.27;58.90;101102.74;105597;1249;69992;-47
2023/05/13 02:50:08;;;;;;;6.70;5.10;;;;;;;9.31;59.03;101107.38;105800;1253;73680;-55
2023/05/13 02:52:38;;;;;;;8.40;5.30;;;;;;;9.29;58.97;101109.15;105691;1251;83480;-46
2023/05/13 02:55:08;;;;;;;7.50;5.50;;;;;;;9.25;59.11;101104.16;105827;1253;72878;-46
2023/05/13 02:57:37;;;;;;;8.30;5.50;;;;;;;9.24;59.06;101105.08;105724;1255;70027;-47
2023/05/13 03:00:06;;;;;;;9.20;5.50;;;;;;;9.20;59.13;101100.98;105652;1251;69983;-47
2023/05/13 03:02:35;;;;;;;8.30;6.00;;;;;;;9.22;59.53;101103.71;105802;1251;74879;-46
2023/05/13 03:05:04;;;;;;;9.30;6.30;;;;;;;9.22;59.48;101103.02;105767;1251;81414;-49
2023/05/13 03:07:32;;;;;;;10.30;6.10;;;;;;;9.19;59.88;101110.92;105863;1255;73759;-46
2023/05/13 03:10:00;;;;;;;9.80;6.00;;;;;;;9.14;59.68;101112.95;105673;1255;69883;-46
2023/05/13 03:12:29;;;;;;;9.90;6.10;;;;;;;9.09;59.73;101107.98;105737;1253;69919;-47
2023/05/13 03:14:58;;;;;;;9.80;6.30;;;;;;;9.09;59.41;101105.89;105753;1253;74927;-46
2023/05/13 03:17:29;;;;;;;11.30;6.70;;;;;;;9.12;59.43;101105.83;105773;1250;82560;-47
2023/05/13 03:19:58;;;;;;;8.20;6.60;;;;;;;9.16;59.47;101106.44;105607;1256;73092;-46
2023/05/13 03:22:26;;;;;;;9.30;5.90;;;;;;;9.15;59.67;101107.50;105768;1253;70011;-46
2023/05/13 03:24:56;;;;;;;12.50;6.10;;;;;;;9.13;59.87;101104.76;105843;1253;69947;-46
2023/05/13 03:27:26;;;;;;;10.60;6.70;;;;;;;9.10;60.03;101105.52;105705;1253;74171;-46
2023/05/13 03:29:54;;;;;;;12.50;6.30;;;;;;;9.07;60.22;101106.98;105673;1257;83076;-46
2023/05/13 03:32:29;;;;;;;9.20;6.60;;;;;;;9.05;59.94;101108.42;105763;1253;73683;-46
2023/05/13 03:34:59;;;;;;;8.00;5.80;;;;;;;9.01;59.99;101107.62;105634;1255;70021;-47
2023/05/13 03:37:28;;;;;;;;;;;;;;;8.98;60.20;101108.55;105665;1251;69916;-46
2023/05/13 03:39:57;;;;;;;10.80;6.70;;;;;;;8.96;60.51;101107.70;105778;1251;74506;-47
2023/05/13 03:42:26;;;;;;;10.30;6.40;;;;;;;8.96;60.46;101107.90;105581;1256;82837;-46
2023/05/13 03:44:58;;;;;;;8.90;6.30;;;;;;;8.96;60.59;101113.83;105743;1253;73947;-46
2023/05/13 03:47:26;;;;;;;11.40;6.70;;;;;;;8.96;60.65;101114.34;105619;1256;70087;-47
2023/05/13 03:49:58;;;;;;;10.80;6.60;;;;;;;8.95;60.99;101120.28;105752;1251;69916;-46
2023/05/13 03:52:26;;;;;;;10.10;6.70;;;;;;;8.96;61.19;101124.98;105692;1253;75051;-46
2023/05/13 03:54:55;;;;;;;8.00;6.00;;;;;;;8.92;61.41;101130.27;105687;1256;83366;-47
2023/05/13 03:57:23;;;;;;;8.40;6.30;;;;;;;8.90;61.55;101131.52;105748;1254;72604;-46
2023/05/13 03:59:51;;;;;;;9.70;6.30;;;;;;;8.87;61.54;101135.59;105721;1253;70035;-46
2023/05/13 04:02:20;;;;;;;9.40;6.50;;;;;;;8.84;61.60;101133.55;105701;1251;69976;-48
2023/05/13 04:04:49;;;;;;;10.90;6.50;;;;;;;8.84;61.89;101134.95;105703;1251;74611;-46
2023/05/13 04:07:19;;;;;;;11.10;6.10;;;;;;;8.81;62.07;101136.93;105703;1250;83636;-47
2023/05/13 04:09:47;;;;;;;9.20;6.60;;;;;;;8.76;62.37;101134.39;105744;1251;72750;-46
2023/05/13 04:12:17;;;;;;;8.60;6.40;;;;;;;8.74;62.51;101136.55;105770;1253;70014;-47
2023/05/13 04:14:45;;;;;;;12.10;6.80;;;;;;;8.70;62.63;101137.11;105654;1251;69983;-46
2023/05/13 04:17:13;;;;;;;10.70;7.30;;;;;;;8.67;62.98;101138.55;105903;1253;75004;-46
2023/05/13 04:19:42;;;;;;;9.20;6.10;;;;;;;8.61;63.13;101141.27;105717;1253;82471;-45
2023/05/13 04:22:10;;;;;;;9.30;6.50;;;;;;;8.56;63.25;101144.66;105761;1253;73437;-45
2023/05/13 04:24:38;;;;;;;10.90;6.40;;;;;;;8.54;63.47;101148.20;105799;1253;70085;-45
2023/05/13 04:27:06;;;;;;;12.40;6.60;;;;;;;8.53;63.80;101149.60;105656;1252;69884;-45
2023/05/13 04:29:35;;;;;;;9.20;6.80;;;;;;;8.52;63.82;101148.05;105708;1253;74910;-45
2023/05/13 04:32:03;;;;;;;11.50;6.90;;;;;;;8.52;64.18;101151.71;105775;1254;83749;-45
2023/05/13 04:34:32;;;;;;;13.20;6.70;;;;;;;8.55;64.29;101149.21;105875;1255;74159;-46
2023/05/13 04:37:00;;;;;;;11.50;6.70;;;;;;;8.61;64.11;101152.09;105671;1257;70136;-47
2023/05/13 04:39:29;;;;;;;11.00;6.70;;;;;;;8.69;63.84;101155.25;105728;1264;69926;-45
2023/05/13 04:41:58;;;;;;;10.70;6.80;;;;;;;8.80;64.27;101155.77;105844;1251;73991;-45
2023/05/13 04:44:26;;;;;;;10.20;6.30;;;;;;;8.90;63.90;101155.05;105795;1255;84073;-45
2023/05/13 04:46:54;;;;;;;16.80;7.10;;;;;;;9.00;63.54;101159.23;105670;1256;72727;-45
2023/05/13 04:49:22;;;;;;;9.90;6.50;;;;;;;9.08;63.46;101155.77;105827;1252;70564;-45
2023/05/13 04:51:52;;;;;;;10.70;6.90;;;;;;;9.18;63.49;101153.48;105837;1256;69808;-46
2023/05/13 04:54:21;;;;;;;11.80;6.90;;;;;;;9.28;63.32;101158.89;105849;1253;75332;-45
2023/05/13 04:56:50;;;;;;;9.70;6.70;;;;;;;9.36;63.22;101162.73;105875;1256;83022;-47
2023/05/13 04:59:18;;;;;;;9.60;6.50;;;;;;;9.43;63.05;101166.79;105813;1253;73828;-45
2023/05/13 05:01:46;;;;;;;9.60;7.10;;;;;;;9.50;62.95;101170.48;105953;1253;69951;-45
2023/05/13 05:04:14;;;;;;;11.30;7.20;;;;;;;9.57;62.77;101170.33;105740;1253;69983;-45
2023/05/13 05:06:44;;;;;;;7.90;6.60;;;;;;;9.65;62.49;101167.56;105734;1256;75003;-45
2023/05/13 05:09:13;;;;;;;11.00;7.00;;;;;;;9.72;62.23;101168.48;105816;1254;82278;-45
2023/05/13 05:11:41;;;;;;;10.40;6.90;;;;;;;9.80;62.53;101167.06;105860;1253;73259;-45
2023/05/13 05:14:09;;;;;;;9.70;6.80;;;;;;;9.89;62.28;101167.73;105672;1251;69935;-45
2023/05/13 05:16:37;;;;;;;10.10;6.80;;;;;;;9.97;62.25;101164.92;105655;1256;69926;-46
2023/05/13 05:19:06;;;;;;;7.60;5.80;;;;;;;10.06;62.10;101162.99;105698;1254;74864;-47
2023/05/13 05:21:36;;;;;;;11.10;6.20;;;;;;;10.15;62.15;101163.83;105701;1253;83185;-47
2023/05/13 05:24:05;;;;;;;11.80;6.20;;;;;;;10.25;62.16;101164.84;105864;1254;72634;-46
2023/05/13 05:26:34;;;;;;;7.60;5.50;;;;;;;10.35;62.05;101164.44;105714;1264;70014;-46
2023/05/13 05:29:02;;;;;;;8.60;5.60;;;;;;;10.43;61.67;101162.67;105806;1256;70666;-47
2023/05/13 05:31:30;;;;;;;8.90;5.30;;;;;;;10.54;61.42;101162.26;105733;1257;74859;-48
2023/05/13 05:34:02;;;;;;;7.40;5.00;;;;;;;10.65;61.10;101158.98;105789;1263;83170;-47
2023/05/13 05:36:30;;;;;;;10.60;5.10;;;;;;;10.78;61.44;101160.95;105463;1255;383180;-47
2023/05/13 05:38:58;;;;;;;8.50;5.60;;;;;;;10.92;60.98;101161.42;105998;1251;70005;-47
2023/05/13 05:41:32;;;;;;;9.20;5.40;;;;;;;11.05;60.71;101162.84;105637;1256;69970;-47
2023/05/13 05:44:00;;;;;;;8.10;5.40;;;;;;;11.19;60.41;101164.58;105973;1254;73956;-48
2023/05/13 05:46:31;;;;;;;8.60;4.80;;;;;;;11.33;60.26;101158.95;105710;1254;83566;-47
2023/05/13 05:49:02;;;;;;;7.40;4.90;;;;;;;11.46;60.21;101159.08;105780;1253;73084;-46
2023/05/13 05:51:33;;;;;;;9.60;5.10;;;;;;;11.62;60.02;101159.00;105803;1257;69944;-47
2023/05/13 05:54:03;;;;;;;10.70;5.00;;;;;;;11.73;59.51;101163.58;105752;1256;70022;-47
2023/05/13 05:56:31;;;;;;;8.20;4.90;;;;;;;11.83;59.10;101167.29;105828;1253;74951;-47
2023/05/13 05:59:00;;;;;;;8.60;5.00;;;;;;;11.95;58.92;101169.24;105819;1252;83816;-47
2023/05/13 06:01:35;;;;;;;6.60;5.00;;;;;;;12.05;58.73;101165.43;106061;1254;73071;-47
2023/05/13 06:04:05;;;;;;;9.10;5.20;;;;;;;12.20;58.54;101164.29;105759;1251;70108;-48
2023/05/13 06:06:34;;;;;;;8.90;5.70;;;;;;;12.31;58.10;101164.07;105768;1257;69998;-46
2023/05/13 06:09:02;;;;;;;8.20;4.50;;;;;;;12.40;58.24;101155.55;105847;1251;74777;-46
2023/05/13 06:11:31;;;;;;;6.90;4.50;;;;;;;12.50;58.07;101157.33;105825;1256;83275;-47
2023/05/13 06:13:59;;;;;;;6.70;4.50;;;;;;;12.61;57.76;101155.76;105813;1254;73535;-47
2023/05/13 06:16:28;;;;;;;6.40;4.40;;;;;;;12.68;57.22;101152.70;105783;1251;69992;-46
2023/05/13 06:18:56;;;;;;;8.50;5.10;;;;;;;12.76;57.49;101151.22;105838;1254;69982;-46
2023/05/13 06:21:25;;;;;;;8.70;4.50;;;;;;;12.85;57.24;101151.61;105742;1253;73898;-46
2023/05/13 06:23:53;;;;;;;6.40;4.90;;;;;;;12.91;56.96;101153.66;105642;1251;82590;-46
2023/05/13 06:26:21;;;;;;;7.70;4.40;;;;;;;12.99;56.55;101151.83;105603;1255;72665;-47
2023/05/13 06:28:50;;;;;;;8.30;4.40;;;;;;;13.06;56.15;101151.56;105735;1252;70036;-47
2023/05/13 06:31:18;;;;;;;6.80;4.30;;;;;;;13.14;55.70;101148.48;105616;1252;69976;-46
2023/05/13 06:33:46;;;;;;;8.50;4.40;;;;;;;13.20;55.58;101148.44;105776;1254;73692;-46
2023/05/13 06:36:15;;;;;;;9.50;4.10;;;;;;;13.28;55.98;101149.23;105691;1255;81888;-46
2023/05/13 06:38:43;;;;;;;6.50;4.80;;;;;;;13.41;55.70;101150.19;105692;1257;72740;-47
2023/05/13 06:41:12;;;;;;;8.50;4.60;;;;;;;13.49;55.32;101148.65;105731;1263;69974;-47
2023/05/13 06:43:40;;;;;;;6.90;4.20;;;;;;;13.56;55.51;101151.52;105738;1252;69976;-47
2023/05/13 06:46:15;;;;;;;11.90;4.60;;;;;;;13.67;55.34;101150.24;105644;1251;74744;-47
2023/05/13 06:48:44;;;;;;;6.60;4.50;;;;;;;13.75;55.04;101153.45;105765;1254;83225;-46
2023/05/13 06:51:13;;;;;;;6.10;4.10;;;;;;;13.84;55.10;101155.59;105622;1251;73768;-46
2023/05/13 06:53:41;;;;;;;10.00;4.60;;;;;;;13.94;54.87;101156.23;105654;1253;69863;-46
2023/05/13 06:56:09;;;;;;;6.10;4.00;;;;;;;14.04;54.44;101157.08;105686;1253;70344;-47
2023/05/13 06:58:37;;;;;;;7.60;4.10;;;;;;;14.13;54.25;101152.69;105733;1253;73700;-47
2023/05/13 07:01:06;;;;;;;8.40;3.90;;;;;;;14.26;54.20;101146.88;105740;1251;82928;-47
2023/05/13 07:03:35;;;;;;;7.60;4.00;;;;;;;14.37;53.72;101151.73;105739;1251;73683;-46
2023/05/13 07:06:03;;;;;;;6.50;4.00;;;;;;;14.44;53.25;101154.92;105745;1254;69984;-46
2023/05/13 07:08:31;;;;;;;7.10;4.10;;;;;;;14.51;53.23;101151.69;105758;1252;70437;-46
2023/05/13 07:11:00;;;;;;;9.20;3.90;;;;;;;14.59;52.97;101152.07;105740;1253;74607;-47
2023/05/13 07:13:28;;;;;;;7.50;4.10;;;;;;;14.69;52.88;101150.25;105704;1253;83236;-47
2023/05/13 07:15:57;;;;;;;8.40;3.70;;;;;;;14.80;53.06;101145.23;105666;1255;73075;-47
2023/05/13 07:18:25;;;;;;;6.40;3.90;;;;;;;14.95;53.05;101143.50;105716;1251;70005;-46
2023/05/13 07:20:55;;;;;;;10.60;4.20;;;;;;;15.10;52.56;101142.70;105769;1253;69992;-46
2023/05/13 07:23:23;;;;;;;10.60;3.90;;;;;;;15.23;52.64;101140.52;105763;1253;75260;-47
2023/05/13 07:25:51;;;;;;;8.00;4.40;;;;;;;15.34;52.23;101139.49;105809;1251;81697;-45
2023/05/13 07:28:20;;;;;;;7.10;3.20;;;;;;;15.44;51.82;101137.32;105721;1256;73423;-45
2023/05/13 07:30:48;;;;;;;7.70;3.80;;;;;;;15.51;51.88;101134.83;105673;1251;69915;-44
2023/05/13 07:33:16;;;;;;;11.40;4.10;;;;;;;15.62;51.37;101135.73;105683;1254;69989;-44
2023/05/13 07:35:44;;;;;;;8.00;3.80;;;;;;;15.71;51.01;101132.73;105678;1254;74716;-45
2023/05/13 07:38:13;;;;;;;5.10;3.60;;;;;;;15.79;50.69;101133.22;105732;1254;83154;-45
2023/05/13 07:40:41;;;;;;;8.00;3.50;;;;;;;15.86;50.47;101131.84;105714;1253;72071;-49
2023/05/13 07:43:10;;;;;;;14.80;4.00;;;;;;;15.92;49.93;101132.59;105772;1256;69905;-48
2023/05/13 07:45:39;;;;;;;8.70;3.60;;;;;;;15.95;49.72;101131.59;105759;1252;69956;-47
2023/05/13 07:48:08;;;;;;;6.30;3.80;;;;;;;16.00;49.93;101134.67;105747;1254;74998;-46
2023/05/13 07:50:37;;;;;;;6.40;3.80;;;;;;;16.13;49.76;101137.45;105705;1254;82340;-47
2023/05/13 07:53:05;;;;;;;4.60;3.60;;;;;;;16.22;49.63;101135.94;105704;1254;73740;-47
2023/05/13 07:55:33;;;;;;;7.70;3.50;;;;;;;16.31;49.51;101139.36;105819;1253;69978;-46
2023/05/13 07:58:02;;;;;;;5.30;3.70;;;;;;;16.41;49.32;101140.31;105683;1253;69906;-46
2023/05/13 08:00:30;;;;;;;7.10;3.80;;;;;;;16.49;49.28;101136.17;105769;1251;74742;-46
2023/05/13 08:02:58;;;;;;;6.50;3.70;;;;;;;16.58;48.90;101137.66;105722;1253;83435;-46
2023/05/13 08:05:27;;;;;;;9.00;4.40;;;;;;;16.66;48.76;101139.71;105791;1254;72866;-46
2023/05/13 08:07:55;;;;;;;6.00;3.60;;;;;;;16.78;48.64;101143.23;105822;1253;69982;-47
2023/05/13 08:10:23;;;;;;;5.80;3.50;;;;;;;16.85;48.28;101144.64;105759;1256;70024;-45
2023/05/13 08:12:56;;;;;;;5.50;3.50;;;;;;;16.86;48.02;101151.95;105721;1251;74521;-47
2023/05/13 08:15:26;;;;;;;5.90;4.00;;;;;;;16.90;47.90;101143.66;105737;1251;82530;-47
2023/05/13 08:17:54;;;;;;;6.00;3.60;;;;;;;16.99;48.07;101151.35;105743;1253;73754;-47
2023/05/13 08:20:28;;;;;;;7.20;4.20;;;;;;;17.09;47.96;101155.02;105774;1251;69973;-47
2023/05/13 08:22:57;;;;;;;6.90;3.60;;;;;;;17.20;47.76;101148.97;105740;1254;69950;-46
2023/05/13 08:25:25;;;;;;;6.50;3.60;;;;;;;17.29;47.54;101148.89;105717;1250;75391;-47
2023/05/13 08:27:54;;;;;;;6.10;4.20;;;;;;;17.35;47.26;101155.96;105751;1254;82959;-46
2023/05/13 08:30:22;;;;;;;10.00;3.80;;;;;;;17.42;47.06;101155.96;105719;1252;73761;-46
2023/05/13 08:32:50;;;;;;;7.00;4.00;;;;;;;17.52;46.90;101159.30;105708;1253;70078;-46
2023/05/13 08:35:19;;;;;;;9.30;4.30;;;;;;;17.58;46.42;101159.67;105746;1254;70319;-46
2023/05/13 08:37:47;;;;;;;6.50;4.30;;;;;;;17.64;46.56;101156.03;105965;1251;75147;-48
2023/05/13 08:40:16;;;;;;;8.00;3.90;;;;;;;17.68;46.20;101152.98;105708;1253;83359;-47
2023/05/13 08:42:48;;;;;;;7.40;4.10;;;;;;;17.79;46.71;101151.48;105706;1252;72648;-46
2023/05/13 08:45:20;;;;;;;7.50;4.00;;;;;;;17.96;46.53;101153.02;105732;1253;69913;-47
2023/05/13 08:48:09;;;;;;;7.90;4.50;;;;;;;18.10;46.42;101155.10;105698;1253;69976;-46
2023/05/13 08:50:37;;;;;;;5.60;4.00;;;;;;;18.21;46.26;101151.39;105590;1251;74655;-46
2023/05/13 08:53:06;;;;;;;7.40;4.10;;;;;;;18.34;45.84;101149.80;105789;1251;82913;-46
2023/05/13 08:55:34;;;;;;;7.10;4.30;;;;;;;18.44;45.69;101147.84;105741;1253;71905;-47
2023/05/13 08:58:03;;;;;;;6.20;3.70;;;;;;;18.53;45.40;101141.81;105721;1253;69897;-47
2023/05/13 09:00:33;;;;;;;5.90;3.90;;;;;;;18.62;45.33;101140.75;105782;1254;69935;-47
2023/05/13 09:03:01;;;;;;;6.60;4.10;;;;;;;18.73;45.08;101143.09;105750;1251;74655;-46
2023/05/13 09:05:30;;;;;;;7.30;4.00;;;;;;;18.88;45.15;101144.68;105836;1253;83445;-46
2023/05/13 09:08:05;;;;;;;6.20;4.20;;;;;;;19.02;44.75;101141.75;105723;1251;73757;-47
2023/05/13 09:10:34;;;;;;;8.50;4.50;;;;;;;19.08;44.52;101148.09;105616;1256;69992;-47
2023/05/13 09:13:03;;;;;;;8.00;4.10;;;;;;;19.14;44.06;101144.94;105951;1252;70004;-47
2023/05/13 09:15:32;;;;;;;6.80;3.80;;;;;;;19.20;44.01;101145.63;105799;1253;74848;-47
2023/05/13 09:18:03;;;;;;;9.10;4.40;;;;;;;19.33;44.01;101153.52;105899;1254;81950;-46
2023/05/13 09:20:32;;;;;;;9.00;4.70;;;;;;;19.30;43.17;101146.44;105681;1251;72833;-46
2023/05/13 09:23:06;;;;;;;7.80;4.30;;;;;;;19.28;43.16;101157.54;105697;1250;69848;-46
2023/05/13 09:25:36;;;;;;;7.20;4.70;;;;;;;19.33;43.20;101158.63;105908;1251;69876;-46
2023/05/13 09:28:06;;;;;;;5.60;4.20;;;;;;;19.44;43.24;101156.92;105728;1254;73915;-47
2023/05/13 09:30:40;;;;;;;6.50;4.20;;;;;;;19.55;43.31;101151.60;105895;1254;82382;-46
2023/05/13 09:33:21;;;;;;;7.20;4.60;;;;;;;19.74;43.29;101148.86;105764;1251;73793;-47
2023/05/13 09:35:51;;;;;;;8.60;4.70;;;;;;;19.92;43.19;101152.30;105699;1254;69941;-47
2023/05/13 09:38:21;;;;;;;7.70;4.50;;;;;;;20.00;42.69;101155.84;105779;1254;69916;-46
2023/05/13 09:40:53;;;;;;;6.80;4.40;;;;;;;20.09;42.70;101151.41;105787;1251;74752;-46
2023/05/13 09:43:27;;;;;;;7.30;4.50;;;;;;;20.26;42.59;101153.64;105795;1251;82484;-47
2023/05/13 09:45:57;;;;;;;8.60;4.30;;;;;;;20.41;42.22;101154.45;105753;1254;72755;-47
2023/05/13 09:48:27;;;;;;;6.40;3.70;;;;;;;20.50;41.76;101157.00;105726;1254;69980;-46
2023/05/13 09:50:56;;;;;;;6.00;4.20;;;;;;;20.63;42.08;101156.34;105722;1251;69969;-47
2023/05/13 09:53:26;;;;;;;6.30;4.30;;;;;;;20.83;42.07;101153.92;105731;1253;73967;-47
2023/05/13 09:55:56;;;;;;;7.30;4.30;;;;;;;20.98;41.60;101148.69;105767;1251;83375;-47
2023/05/13 09:58:29;;;;;;;9.80;4.00;;;;;;;21.08;41.57;101145.17;105861;1254;71960;-46
2023/05/13 10:00:58;;;;;;;7.00;4.10;;;;;;;21.18;41.38;101150.64;105758;1252;69999;-46
2023/05/13 10:03:28;;;;;;;9.70;4.30;;;;;;;21.32;41.10;101144.86;105792;1250;69932;-47
2023/05/13 10:05:57;;;;;;;6.40;3.70;;;;;;;21.48;41.03;101145.92;105735;1253;73930;-47
2023/05/13 10:08:30;;;;;;;7.00;3.80;;;;;;;21.71;40.93;101144.12;105606;1257;83490;-47
2023/05/13 10:10:58;;;;;;;9.00;3.60;;;;;;;21.99;40.53;101145.45;105790;1251;73909;-47
2023/05/13 10:13:28;;;;;;;4.00;3.30;;;;;;;22.24;39.97;101148.44;105661;1258;70673;-47
2023/05/13 10:15:57;;;;;;;6.20;3.90;;;;;;;22.42;39.27;101146.73;105850;1249;69931;-47
2023/05/13 10:18:27;;;;;;;5.60;3.00;;;;;;;22.65;38.75;101143.95;105788;1251;74561;-47
2023/05/13 10:20:56;;;;;;;4.50;2.90;;;;;;;22.89;38.61;101146.91;105782;1251;83210;-47
2023/05/13 10:23:25;;;;;;;5.20;3.30;;;;;;;23.14;38.10;101147.83;105739;1254;73947;-47
2023/05/13 10:25:56;;;;;;;4.20;2.40;;;;;;;23.41;37.70;101145.03;105688;1253;69972;-47
2023/05/13 10:28:26;;;;;;;3.60;2.70;;;;;;;23.76;37.22;101144.00;105733;1252;70313;-47
2023/05/13 10:30:56;;;;;;;5.30;3.00;;;;;;;24.02;36.54;101147.09;105836;1254;74608;-47
2023/05/13 10:33:26;;;;;;;6.20;3.00;;;;;;;24.25;36.30;101149.63;105819;1251;83530;-48
2023/05/13 10:36:10;;;;;;;9.60;3.20;;;;;;;24.50;35.82;101157.42;105762;1251;73625;-49
2023/05/13 10:39:09;;;;;;;7.20;3.50;;;;;;;24.70;35.26;101151.11;105715;1251;70068;-49
2023/05/13 10:41:55;;;;;;;4.50;3.10;;;;;;;24.63;35.22;101158.15;105730;1253;69914;-45
2023/05/13 10:44:24;;;;;;;6.30;3.00;;;;;;;24.60;35.28;101156.41;105726;1253;75156;-45
2023/05/13 10:46:55;;;;;;;5.50;2.50;;;;;;;24.68;35.20;101154.98;105714;1251;83043;-48
2023/05/13 10:49:25;;;;;;;4.60;2.90;;;;;;;24.83;34.73;101152.84;105650;1254;72681;-47
2023/05/13 10:52:03;;;;;;;5.20;3.00;;;;;;;25.08;34.35;101142.12;105717;1256;70005;-44
2023/05/13 10:54:37;;;;;;;6.70;2.80;;;;;;;25.17;34.12;101144.65;105748;1254;69970;-45
2023/05/13 10:57:06;;;;;;;4.30;2.80;;;;;;;25.30;34.03;101142.61;105871;1253;74005;-46
2023/05/13 10:59:36;;;;;;;4.50;2.50;;;;;;;25.40;33.62;101142.77;105831;1251;83492;-48
2023/05/13 11:02:23;;;;;;;4.10;2.30;;;;;;;25.37;33.59;101143.38;105755;1254;72973;-48
2023/05/13 11:04:59;;;;;;;7.10;2.90;;;;;;;25.49;33.20;101136.81;105706;1251;70672;-49
2023/05/13 11:07:28;;;;;;;4.70;2.20;;;;;;;25.37;33.01;101132.16;105755;1253;70005;-48
2023/05/13 11:09:56;;;;;;;4.70;2.10;;;;;;;25.46;33.04;101133.14;105795;1253;73960;-48
2023/05/13 11:12:24;;;;;;;7.60;2.30;;;;;;;25.42;32.77;101134.36;105585;1251;82649;-48
2023/05/13 11:14:55;;;;;;;3.60;2.20;;;;;;;25.56;32.04;101133.99;105815;1251;73867;-48
2023/05/13 11:17:24;;;;;;;5.80;2.30;;;;;;;25.65;31.57;101126.96;105777;1250;69963;-48
2023/05/13 11:19:53;;;;;;;3.90;2.00;;;;;;;25.53;31.25;101132.01;105759;1251;70549;-47
2023/05/13 11:22:25;;;;;;;3.60;2.50;;;;;;;25.57;31.25;101130.71;105766;1251;72963;-48
2023/05/13 11:25:04;;;;;;;3.90;2.40;;;;;;;25.77;31.24;101138.76;105780;1251;83534;-48
2023/05/13 11:27:37;;;;;;;5.60;2.20;;;;;;;26.07;31.13;101135.23;105760;1255;73804;-47
2023/05/13 11:30:20;;;;;;;4.50;1.80;;;;;;;26.46;30.94;101129.10;105880;1253;69995;-48
2023/05/13 11:32:55;;;;;;;3.40;1.90;;;;;;;26.96;30.58;101131.95;105798;1253;69964;-48